sensor_id;sensor_type;location;lat;lon;timestamp;P1;durP1;ratioP1;P2;durP2;ratioP2
17648;SDS011;8943;51.110;-4.158;2023-01-19T00:01:40;9.50;;;2.33;;
17648;SDS011;8943;51.110;-4.158;2023-01-19T00:04:09;5.97;;;1.70;;
17648;SDS011;8943;51.110;-4.158;2023-01-19T00:06:39;9.23;;;1.60;;
17648;SDS011;8943;51.110;-4.158;2023-01-19T00:09:09;4.43;;;1.27;;
17648;SDS011;8943;51.110;-4.158;2023-01-19T00:11:38;5.47;;;1.73;;
17648;SDS011;8943;51.110;-4.158;2023-01-19T00:14:06;14.73;;;2.13;;
17648;SDS011;8943;51.110;-4.158;2023-01-19T00:16:35;5.47;;;1.63;;
17648;SDS011;8943;51.110;-4.158;2023-01-19T00:19:04;14.87;;;2.10;;
17648;SDS011;8943;51.110;-4.158;2023-01-19T00:21:32;12.40;;;1.90;;
17648;SDS011;8943;51.110;-4.158;2023-01-19T00:24:00;6.40;;;1.37;;
17648;SDS011;8943;51.110;-4.158;2023-01-19T00:26:28;10.83;;;1.60;;
17648;SDS011;8943;51.110;-4.158;2023-01-19T00:28:56;10.30;;;1.80;;
17648;SDS011;8943;51.110;-4.158;2023-01-19T00:31:24;5.33;;;1.47;;
17648;SDS011;8943;51.110;-4.158;2023-01-19T00:33:59;3.57;;;1.33;;
17648;SDS011;8943;51.110;-4.158;2023-01-19T00:36:27;8.13;;;1.90;;
17648;SDS011;8943;51.110;-4.158;2023-01-19T00:38:55;8.57;;;1.70;;
17648;SDS011;8943;51.110;-4.158;2023-01-19T00:41:23;5.97;;;1.73;;
17648;SDS011;8943;51.110;-4.158;2023-01-19T00:44:05;4.70;;;1.27;;
17648;SDS011;8943;51.110;-4.158;2023-01-19T00:46:33;6.30;;;1.60;;
17648;SDS011;8943;51.110;-4.158;2023-01-19T00:49:03;6.90;;;1.50;;
17648;SDS011;8943;51.110;-4.158;2023-01-19T00:51:31;7.03;;;2.40;;
17648;SDS011;8943;51.110;-4.158;2023-01-19T00:53:59;9.17;;;1.97;;
17648;SDS011;8943;51.110;-4.158;2023-01-19T00:56:30;4.13;;;1.27;;
17648;SDS011;8943;51.110;-4.158;2023-01-19T00:58:58;7.53;;;1.37;;
17648;SDS011;8943;51.110;-4.158;2023-01-19T01:01:26;6.10;;;1.27;;
17648;SDS011;8943;51.110;-4.158;2023-01-19T01:04:13;9.00;;;1.47;;
17648;SDS011;8943;51.110;-4.158;2023-01-19T01:06:41;9.13;;;1.50;;
17648;SDS011;8943;51.110;-4.158;2023-01-19T01:09:09;5.60;;;1.30;;
17648;SDS011;8943;51.110;-4.158;2023-01-19T01:11:38;7.17;;;1.40;;
17648;SDS011;8943;51.110;-4.158;2023-01-19T01:14:06;7.27;;;1.40;;
17648;SDS011;8943;51.110;-4.158;2023-01-19T01:16:35;6.17;;;1.37;;
17648;SDS011;8943;51.110;-4.158;2023-01-19T01:19:03;4.87;;;1.20;;
17648;SDS011;8943;51.110;-4.158;2023-01-19T01:21:33;7.33;;;1.50;;
17648;SDS011;8943;51.110;-4.158;2023-01-19T01:24:02;7.43;;;1.47;;
17648;SDS011;8943;51.110;-4.158;2023-01-19T01:26:31;9.10;;;1.80;;
17648;SDS011;8943;51.110;-4.158;2023-01-19T01:28:59;4.70;;;1.20;;
17648;SDS011;8943;51.110;-4.158;2023-01-19T01:31:27;8.30;;;1.50;;
17648;SDS011;8943;51.110;-4.158;2023-01-19T01:33:55;13.83;;;1.87;;
17648;SDS011;8943;51.110;-4.158;2023-01-19T01:36:23;7.33;;;1.53;;
17648;SDS011;8943;51.110;-4.158;2023-01-19T01:38:55;5.03;;;1.87;;
17648;SDS011;8943;51.110;-4.158;2023-01-19T01:41:24;3.43;;;1.40;;
17648;SDS011;8943;51.110;-4.158;2023-01-19T01:43:53;5.07;;;1.13;;
17648;SDS011;8943;51.110;-4.158;2023-01-19T01:46:24;7.63;;;1.50;;
17648;SDS011;8943;51.110;-4.158;2023-01-19T01:48:55;4.33;;;1.20;;
17648;SDS011;8943;51.110;-4.158;2023-01-19T01:51:28;7.00;;;1.87;;
17648;SDS011;8943;51.110;-4.158;2023-01-19T01:54:02;6.23;;;1.37;;
17648;SDS011;8943;51.110;-4.158;2023-01-19T01:56:38;3.77;;;1.23;;
17648;SDS011;8943;51.110;-4.158;2023-01-19T01:59:10;9.93;;;1.23;;
17648;SDS011;8943;51.110;-4.158;2023-01-19T02:01:43;10.97;;;1.80;;
17648;SDS011;8943;51.110;-4.158;2023-01-19T02:04:28;7.37;;;1.63;;
17648;SDS011;8943;51.110;-4.158;2023-01-19T02:06:58;7.97;;;1.33;;
17648;SDS011;8943;51.110;-4.158;2023-01-19T02:09:45;5.97;;;1.30;;
17648;SDS011;8943;51.110;-4.158;2023-01-19T02:12:31;3.73;;;1.23;;
17648;SDS011;8943;51.110;-4.158;2023-01-19T02:15:17;6.83;;;1.30;;
17648;SDS011;8943;51.110;-4.158;2023-01-19T02:17:47;6.63;;;1.40;;
17648;SDS011;8943;51.110;-4.158;2023-01-19T02:20:18;4.83;;;1.70;;
17648;SDS011;8943;51.110;-4.158;2023-01-19T02:22:49;7.50;;;1.83;;
17648;SDS011;8943;51.110;-4.158;2023-01-19T02:25:20;8.10;;;1.63;;
17648;SDS011;8943;51.110;-4.158;2023-01-19T02:27:51;4.80;;;1.50;;
17648;SDS011;8943;51.110;-4.158;2023-01-19T02:30:20;7.00;;;1.50;;
17648;SDS011;8943;51.110;-4.158;2023-01-19T02:32:48;9.20;;;2.07;;
17648;SDS011;8943;51.110;-4.158;2023-01-19T02:35:16;6.30;;;1.30;;
17648;SDS011;8943;51.110;-4.158;2023-01-19T02:37:46;6.67;;;1.50;;
17648;SDS011;8943;51.110;-4.158;2023-01-19T02:40:16;4.07;;;1.20;;
17648;SDS011;8943;51.110;-4.158;2023-01-19T02:42:48;5.20;;;1.40;;
17648;SDS011;8943;51.110;-4.158;2023-01-19T02:45:18;7.97;;;1.47;;
17648;SDS011;8943;51.110;-4.158;2023-01-19T02:47:49;4.53;;;1.50;;
17648;SDS011;8943;51.110;-4.158;2023-01-19T02:53:15;4.27;;;1.63;;
17648;SDS011;8943;51.110;-4.158;2023-01-19T02:56:14;6.93;;;1.90;;
17648;SDS011;8943;51.110;-4.158;2023-01-19T02:58:57;6.17;;;1.50;;
17648;SDS011;8943;51.110;-4.158;2023-01-19T03:01:32;7.07;;;1.53;;
17648;SDS011;8943;51.110;-4.158;2023-01-19T03:04:17;8.17;;;1.50;;
17648;SDS011;8943;51.110;-4.158;2023-01-19T03:06:52;7.57;;;1.77;;
17648;SDS011;8943;51.110;-4.158;2023-01-19T03:09:27;10.50;;;2.10;;
17648;SDS011;8943;51.110;-4.158;2023-01-19T03:12:00;13.23;;;1.70;;
17648;SDS011;8943;51.110;-4.158;2023-01-19T03:14:32;5.90;;;1.30;;
17648;SDS011;8943;51.110;-4.158;2023-01-19T03:17:08;5.23;;;1.33;;
17648;SDS011;8943;51.110;-4.158;2023-01-19T03:19:38;4.50;;;1.30;;
17648;SDS011;8943;51.110;-4.158;2023-01-19T03:22:10;6.33;;;1.33;;
17648;SDS011;8943;51.110;-4.158;2023-01-19T03:24:42;7.53;;;1.40;;
17648;SDS011;8943;51.110;-4.158;2023-01-19T03:27:13;6.10;;;1.70;;
17648;SDS011;8943;51.110;-4.158;2023-01-19T03:29:47;4.80;;;1.60;;
17648;SDS011;8943;51.110;-4.158;2023-01-19T03:32:19;11.07;;;1.93;;
17648;SDS011;8943;51.110;-4.158;2023-01-19T03:34:55;4.27;;;1.20;;
17648;SDS011;8943;51.110;-4.158;2023-01-19T03:37:26;6.67;;;1.37;;
17648;SDS011;8943;51.110;-4.158;2023-01-19T03:39:57;6.83;;;1.50;;
17648;SDS011;8943;51.110;-4.158;2023-01-19T03:42:25;5.03;;;1.33;;
17648;SDS011;8943;51.110;-4.158;2023-01-19T03:44:56;5.53;;;1.17;;
17648;SDS011;8943;51.110;-4.158;2023-01-19T03:47:27;6.17;;;1.57;;
17648;SDS011;8943;51.110;-4.158;2023-01-19T03:49:55;8.07;;;1.60;;
17648;SDS011;8943;51.110;-4.158;2023-01-19T03:52:26;4.63;;;1.37;;
17648;SDS011;8943;51.110;-4.158;2023-01-19T03:54:55;7.37;;;1.70;;
17648;SDS011;8943;51.110;-4.158;2023-01-19T03:57:23;15.10;;;1.60;;
17648;SDS011;8943;51.110;-4.158;2023-01-19T03:59:52;5.10;;;1.70;;
17648;SDS011;8943;51.110;-4.158;2023-01-19T04:02:21;4.37;;;1.77;;
17648;SDS011;8943;51.110;-4.158;2023-01-19T04:04:49;6.23;;;1.30;;
17648;SDS011;8943;51.110;-4.158;2023-01-19T04:07:18;9.37;;;1.90;;
17648;SDS011;8943;51.110;-4.158;2023-01-19T04:09:46;5.77;;;1.50;;
17648;SDS011;8943;51.110;-4.158;2023-01-19T04:12:14;4.53;;;1.27;;
17648;SDS011;8943;51.110;-4.158;2023-01-19T04:14:42;7.40;;;1.40;;
17648;SDS011;8943;51.110;-4.158;2023-01-19T04:17:10;4.90;;;1.17;;
17648;SDS011;8943;51.110;-4.158;2023-01-19T04:19:41;6.33;;;1.27;;
17648;SDS011;8943;51.110;-4.158;2023-01-19T04:22:10;3.33;;;1.00;;
17648;SDS011;8943;51.110;-4.158;2023-01-19T04:24:38;7.83;;;1.63;;
17648;SDS011;8943;51.110;-4.158;2023-01-19T04:27:06;3.90;;;1.47;;
17648;SDS011;8943;51.110;-4.158;2023-01-19T04:29:35;4.47;;;1.40;;
17648;SDS011;8943;51.110;-4.158;2023-01-19T04:32:03;3.93;;;1.30;;
17648;SDS011;8943;51.110;-4.158;2023-01-19T04:34:31;4.43;;;1.17;;
17648;SDS011;8943;51.110;-4.158;2023-01-19T04:37:01;5.20;;;1.50;;
17648;SDS011;8943;51.110;-4.158;2023-01-19T04:39:29;5.27;;;1.13;;
17648;SDS011;8943;51.110;-4.158;2023-01-19T04:41:57;3.77;;;1.10;;
17648;SDS011;8943;51.110;-4.158;2023-01-19T04:44:26;5.07;;;1.70;;
17648;SDS011;8943;51.110;-4.158;2023-01-19T04:46:54;4.30;;;1.07;;
17648;SDS011;8943;51.110;-4.158;2023-01-19T04:49:22;3.93;;;1.30;;
17648;SDS011;8943;51.110;-4.158;2023-01-19T04:51:51;5.07;;;1.00;;
17648;SDS011;8943;51.110;-4.158;2023-01-19T04:54:21;2.73;;;1.23;;
17648;SDS011;8943;51.110;-4.158;2023-01-19T04:56:50;4.40;;;1.20;;
17648;SDS011;8943;51.110;-4.158;2023-01-19T04:59:18;5.43;;;1.50;;
17648;SDS011;8943;51.110;-4.158;2023-01-19T05:01:46;2.10;;;0.93;;
17648;SDS011;8943;51.110;-4.158;2023-01-19T05:04:15;3.53;;;1.10;;
17648;SDS011;8943;51.110;-4.158;2023-01-19T05:06:43;6.33;;;1.20;;
17648;SDS011;8943;51.110;-4.158;2023-01-19T05:09:11;9.10;;;1.40;;
17648;SDS011;8943;51.110;-4.158;2023-01-19T05:11:42;6.53;;;1.20;;
17648;SDS011;8943;51.110;-4.158;2023-01-19T05:14:10;4.93;;;1.33;;
17648;SDS011;8943;51.110;-4.158;2023-01-19T05:16:38;4.33;;;1.10;;
17648;SDS011;8943;51.110;-4.158;2023-01-19T05:19:06;5.67;;;1.23;;
17648;SDS011;8943;51.110;-4.158;2023-01-19T05:21:34;3.33;;;1.13;;
17648;SDS011;8943;51.110;-4.158;2023-01-19T05:24:04;3.70;;;1.37;;
17648;SDS011;8943;51.110;-4.158;2023-01-19T05:26:33;1.67;;;1.10;;
17648;SDS011;8943;51.110;-4.158;2023-01-19T05:29:03;5.77;;;1.40;;
17648;SDS011;8943;51.110;-4.158;2023-01-19T05:31:31;4.13;;;1.33;;
17648;SDS011;8943;51.110;-4.158;2023-01-19T05:33:59;4.47;;;1.23;;
17648;SDS011;8943;51.110;-4.158;2023-01-19T05:36:27;3.17;;;1.40;;
17648;SDS011;8943;51.110;-4.158;2023-01-19T05:38:57;4.57;;;1.23;;
17648;SDS011;8943;51.110;-4.158;2023-01-19T05:41:25;3.67;;;1.20;;
17648;SDS011;8943;51.110;-4.158;2023-01-19T05:43:53;5.73;;;1.63;;
17648;SDS011;8943;51.110;-4.158;2023-01-19T05:46:22;9.97;;;1.53;;
17648;SDS011;8943;51.110;-4.158;2023-01-19T05:48:51;6.60;;;1.40;;
17648;SDS011;8943;51.110;-4.158;2023-01-19T05:51:19;10.80;;;2.20;;
17648;SDS011;8943;51.110;-4.158;2023-01-19T05:53:49;6.53;;;1.77;;
17648;SDS011;8943;51.110;-4.158;2023-01-19T05:56:17;9.67;;;2.13;;
17648;SDS011;8943;51.110;-4.158;2023-01-19T05:58:46;6.70;;;2.17;;
17648;SDS011;8943;51.110;-4.158;2023-01-19T06:01:14;3.97;;;1.50;;
17648;SDS011;8943;51.110;-4.158;2023-01-19T06:03:43;5.63;;;1.50;;
17648;SDS011;8943;51.110;-4.158;2023-01-19T06:06:12;3.77;;;1.43;;
17648;SDS011;8943;51.110;-4.158;2023-01-19T06:08:41;4.93;;;1.53;;
17648;SDS011;8943;51.110;-4.158;2023-01-19T06:11:10;4.07;;;1.67;;
17648;SDS011;8943;51.110;-4.158;2023-01-19T06:13:38;6.37;;;1.50;;
17648;SDS011;8943;51.110;-4.158;2023-01-19T06:16:07;10.60;;;1.80;;
17648;SDS011;8943;51.110;-4.158;2023-01-19T06:18:37;4.90;;;1.30;;
17648;SDS011;8943;51.110;-4.158;2023-01-19T06:21:08;6.93;;;1.27;;
17648;SDS011;8943;51.110;-4.158;2023-01-19T06:23:38;3.37;;;1.33;;
17648;SDS011;8943;51.110;-4.158;2023-01-19T06:26:07;7.10;;;1.83;;
17648;SDS011;8943;51.110;-4.158;2023-01-19T06:28:35;10.37;;;2.30;;
17648;SDS011;8943;51.110;-4.158;2023-01-19T06:31:03;7.23;;;2.13;;
17648;SDS011;8943;51.110;-4.158;2023-01-19T06:33:32;5.83;;;1.70;;
17648;SDS011;8943;51.110;-4.158;2023-01-19T06:36:00;7.30;;;1.70;;
17648;SDS011;8943;51.110;-4.158;2023-01-19T06:38:29;4.90;;;2.03;;
17648;SDS011;8943;51.110;-4.158;2023-01-19T06:40:58;10.57;;;3.40;;
17648;SDS011;8943;51.110;-4.158;2023-01-19T06:43:28;6.27;;;2.63;;
17648;SDS011;8943;51.110;-4.158;2023-01-19T06:45:57;21.53;;;3.97;;
17648;SDS011;8943;51.110;-4.158;2023-01-19T06:48:26;7.33;;;2.23;;
17648;SDS011;8943;51.110;-4.158;2023-01-19T06:50:55;5.07;;;2.10;;
17648;SDS011;8943;51.110;-4.158;2023-01-19T06:53:25;81.03;;;7.60;;
17648;SDS011;8943;51.110;-4.158;2023-01-19T06:55:58;9.07;;;3.80;;
17648;SDS011;8943;51.110;-4.158;2023-01-19T06:58:30;107.57;;;10.27;;
17648;SDS011;8943;51.110;-4.158;2023-01-19T07:01:00;5.57;;;2.67;;
17648;SDS011;8943;51.110;-4.158;2023-01-19T07:03:29;9.60;;;2.50;;
17648;SDS011;8943;51.110;-4.158;2023-01-19T07:05:57;6.77;;;1.80;;
17648;SDS011;8943;51.110;-4.158;2023-01-19T07:08:27;6.90;;;2.80;;
17648;SDS011;8943;51.110;-4.158;2023-01-19T07:10:59;5.83;;;2.00;;
17648;SDS011;8943;51.110;-4.158;2023-01-19T07:13:47;6.20;;;1.93;;
17648;SDS011;8943;51.110;-4.158;2023-01-19T07:16:17;7.40;;;2.43;;
17648;SDS011;8943;51.110;-4.158;2023-01-19T07:18:46;47.00;;;5.67;;
17648;SDS011;8943;51.110;-4.158;2023-01-19T07:21:16;12.20;;;5.93;;
17648;SDS011;8943;51.110;-4.158;2023-01-19T07:23:46;18.47;;;8.57;;
17648;SDS011;8943;51.110;-4.158;2023-01-19T07:26:16;29.87;;;10.70;;
17648;SDS011;8943;51.110;-4.158;2023-01-19T07:28:47;21.47;;;8.00;;
17648;SDS011;8943;51.110;-4.158;2023-01-19T07:31:15;11.97;;;4.90;;
17648;SDS011;8943;51.110;-4.158;2023-01-19T07:33:44;13.07;;;4.07;;
17648;SDS011;8943;51.110;-4.158;2023-01-19T07:36:12;6.47;;;2.63;;
17648;SDS011;8943;51.110;-4.158;2023-01-19T07:38:40;9.33;;;3.47;;
17648;SDS011;8943;51.110;-4.158;2023-01-19T07:41:08;11.07;;;4.57;;
17648;SDS011;8943;51.110;-4.158;2023-01-19T07:43:38;10.60;;;4.43;;
17648;SDS011;8943;51.110;-4.158;2023-01-19T07:46:06;8.13;;;3.10;;
17648;SDS011;8943;51.110;-4.158;2023-01-19T07:48:34;4.77;;;1.80;;
17648;SDS011;8943;51.110;-4.158;2023-01-19T07:51:03;6.00;;;1.90;;
17648;SDS011;8943;51.110;-4.158;2023-01-19T07:53:37;7.37;;;1.97;;
17648;SDS011;8943;51.110;-4.158;2023-01-19T07:56:07;6.87;;;2.53;;
17648;SDS011;8943;51.110;-4.158;2023-01-19T07:58:38;17.63;;;3.77;;
17648;SDS011;8943;51.110;-4.158;2023-01-19T08:01:07;5.67;;;1.97;;
17648;SDS011;8943;51.110;-4.158;2023-01-19T08:03:35;3.63;;;1.87;;
17648;SDS011;8943;51.110;-4.158;2023-01-19T08:06:04;6.50;;;2.33;;
17648;SDS011;8943;51.110;-4.158;2023-01-19T08:08:33;6.80;;;1.90;;
17648;SDS011;8943;51.110;-4.158;2023-01-19T08:11:01;6.80;;;2.10;;
17648;SDS011;8943;51.110;-4.158;2023-01-19T08:13:29;7.63;;;1.90;;
17648;SDS011;8943;51.110;-4.158;2023-01-19T08:15:59;5.03;;;1.40;;
17648;SDS011;8943;51.110;-4.158;2023-01-19T08:18:27;6.40;;;2.00;;
17648;SDS011;8943;51.110;-4.158;2023-01-19T08:20:57;7.77;;;1.93;;
17648;SDS011;8943;51.110;-4.158;2023-01-19T08:23:25;7.13;;;1.63;;
17648;SDS011;8943;51.110;-4.158;2023-01-19T08:25:53;5.37;;;1.60;;
17648;SDS011;8943;51.110;-4.158;2023-01-19T08:28:21;6.40;;;2.20;;
17648;SDS011;8943;51.110;-4.158;2023-01-19T08:30:49;4.00;;;1.80;;
17648;SDS011;8943;51.110;-4.158;2023-01-19T08:33:22;3.90;;;2.40;;
17648;SDS011;8943;51.110;-4.158;2023-01-19T08:35:51;6.47;;;1.90;;
17648;SDS011;8943;51.110;-4.158;2023-01-19T08:38:20;8.10;;;1.73;;
17648;SDS011;8943;51.110;-4.158;2023-01-19T08:40:48;10.10;;;2.13;;
17648;SDS011;8943;51.110;-4.158;2023-01-19T08:43:16;6.50;;;1.83;;
17648;SDS011;8943;51.110;-4.158;2023-01-19T08:45:48;4.37;;;1.73;;
17648;SDS011;8943;51.110;-4.158;2023-01-19T08:48:18;8.47;;;3.20;;
17648;SDS011;8943;51.110;-4.158;2023-01-19T08:50:49;7.67;;;3.13;;
17648;SDS011;8943;51.110;-4.158;2023-01-19T08:53:19;7.87;;;1.90;;
17648;SDS011;8943;51.110;-4.158;2023-01-19T08:55:49;5.00;;;2.47;;
17648;SDS011;8943;51.110;-4.158;2023-01-19T08:58:17;10.17;;;3.60;;
17648;SDS011;8943;51.110;-4.158;2023-01-19T09:00:44;7.80;;;2.10;;
17648;SDS011;8943;51.110;-4.158;2023-01-19T09:03:14;6.50;;;2.07;;
17648;SDS011;8943;51.110;-4.158;2023-01-19T09:05:42;6.40;;;1.83;;
17648;SDS011;8943;51.110;-4.158;2023-01-19T09:08:12;6.70;;;1.63;;
17648;SDS011;8943;51.110;-4.158;2023-01-19T09:10:43;7.50;;;3.23;;
17648;SDS011;8943;51.110;-4.158;2023-01-19T09:13:12;8.47;;;4.77;;
17648;SDS011;8943;51.110;-4.158;2023-01-19T09:15:41;9.10;;;6.07;;
17648;SDS011;8943;51.110;-4.158;2023-01-19T09:18:11;6.87;;;4.37;;
17648;SDS011;8943;51.110;-4.158;2023-01-19T09:20:40;34.23;;;18.60;;
17648;SDS011;8943;51.110;-4.158;2023-01-19T09:23:09;18.33;;;8.80;;
17648;SDS011;8943;51.110;-4.158;2023-01-19T09:25:39;12.77;;;5.70;;
17648;SDS011;8943;51.110;-4.158;2023-01-19T09:28:10;10.80;;;6.33;;
17648;SDS011;8943;51.110;-4.158;2023-01-19T09:30:40;7.67;;;3.57;;
17648;SDS011;8943;51.110;-4.158;2023-01-19T09:33:10;5.23;;;2.87;;
17648;SDS011;8943;51.110;-4.158;2023-01-19T09:35:42;5.30;;;1.90;;
17648;SDS011;8943;51.110;-4.158;2023-01-19T09:38:12;9.67;;;1.97;;
17648;SDS011;8943;51.110;-4.158;2023-01-19T09:40:43;8.40;;;1.80;;
17648;SDS011;8943;51.110;-4.158;2023-01-19T09:43:16;8.07;;;3.20;;
17648;SDS011;8943;51.110;-4.158;2023-01-19T09:45:53;5.83;;;1.80;;
17648;SDS011;8943;51.110;-4.158;2023-01-19T09:48:26;8.17;;;2.33;;
17648;SDS011;8943;51.110;-4.158;2023-01-19T09:51:00;6.37;;;1.90;;
17648;SDS011;8943;51.110;-4.158;2023-01-19T09:53:34;5.90;;;3.57;;
17648;SDS011;8943;51.110;-4.158;2023-01-19T09:56:12;8.70;;;3.13;;
17648;SDS011;8943;51.110;-4.158;2023-01-19T09:58:42;5.53;;;2.20;;
17648;SDS011;8943;51.110;-4.158;2023-01-19T10:01:13;5.83;;;2.27;;
17648;SDS011;8943;51.110;-4.158;2023-01-19T10:04:10;7.30;;;2.20;;
17648;SDS011;8943;51.110;-4.158;2023-01-19T10:06:54;7.20;;;2.60;;
17648;SDS011;8943;51.110;-4.158;2023-01-19T10:09:30;6.07;;;2.63;;
17648;SDS011;8943;51.110;-4.158;2023-01-19T10:12:07;11.33;;;7.00;;
17648;SDS011;8943;51.110;-4.158;2023-01-19T10:14:44;8.73;;;4.93;;
17648;SDS011;8943;51.110;-4.158;2023-01-19T10:17:20;11.07;;;6.20;;
17648;SDS011;8943;51.110;-4.158;2023-01-19T10:20:06;11.53;;;5.30;;
17648;SDS011;8943;51.110;-4.158;2023-01-19T10:22:44;5.37;;;3.63;;
17648;SDS011;8943;51.110;-4.158;2023-01-19T10:25:17;9.20;;;3.70;;
17648;SDS011;8943;51.110;-4.158;2023-01-19T10:27:50;7.33;;;3.47;;
17648;SDS011;8943;51.110;-4.158;2023-01-19T10:30:20;11.73;;;6.00;;
17648;SDS011;8943;51.110;-4.158;2023-01-19T10:32:50;9.63;;;5.93;;
17648;SDS011;8943;51.110;-4.158;2023-01-19T10:35:19;12.17;;;6.13;;
17648;SDS011;8943;51.110;-4.158;2023-01-19T10:37:50;10.37;;;5.23;;
17648;SDS011;8943;51.110;-4.158;2023-01-19T10:40:24;7.33;;;4.13;;
17648;SDS011;8943;51.110;-4.158;2023-01-19T10:42:58;9.60;;;3.00;;
17648;SDS011;8943;51.110;-4.158;2023-01-19T10:45:28;6.37;;;3.90;;
17648;SDS011;8943;51.110;-4.158;2023-01-19T10:47:59;7.73;;;3.50;;
17648;SDS011;8943;51.110;-4.158;2023-01-19T10:50:33;10.57;;;5.67;;
17648;SDS011;8943;51.110;-4.158;2023-01-19T10:53:05;9.20;;;3.90;;
17648;SDS011;8943;51.110;-4.158;2023-01-19T10:55:45;9.27;;;3.80;;
17648;SDS011;8943;51.110;-4.158;2023-01-19T10:58:26;6.83;;;1.97;;
17648;SDS011;8943;51.110;-4.158;2023-01-19T11:00:58;4.83;;;1.70;;
17648;SDS011;8943;51.110;-4.158;2023-01-19T11:03:40;7.70;;;2.10;;
17648;SDS011;8943;51.110;-4.158;2023-01-19T11:06:23;3.93;;;1.43;;
17648;SDS011;8943;51.110;-4.158;2023-01-19T11:09:13;6.43;;;1.67;;
17648;SDS011;8943;51.110;-4.158;2023-01-19T11:11:47;8.60;;;1.80;;
17648;SDS011;8943;51.110;-4.158;2023-01-19T11:14:19;7.03;;;2.57;;
17648;SDS011;8943;51.110;-4.158;2023-01-19T11:16:50;5.43;;;2.33;;
17648;SDS011;8943;51.110;-4.158;2023-01-19T11:19:23;5.37;;;1.93;;
17648;SDS011;8943;51.110;-4.158;2023-01-19T11:22:06;8.17;;;2.00;;
17648;SDS011;8943;51.110;-4.158;2023-01-19T11:24:37;6.80;;;2.73;;
17648;SDS011;8943;51.110;-4.158;2023-01-19T11:27:06;3.30;;;2.50;;
17648;SDS011;8943;51.110;-4.158;2023-01-19T11:29:35;5.37;;;2.00;;
17648;SDS011;8943;51.110;-4.158;2023-01-19T11:32:11;8.50;;;2.17;;
17648;SDS011;8943;51.110;-4.158;2023-01-19T11:34:47;5.13;;;2.00;;
17648;SDS011;8943;51.110;-4.158;2023-01-19T11:37:27;6.20;;;2.30;;
17648;SDS011;8943;51.110;-4.158;2023-01-19T11:39:59;3.90;;;2.00;;
17648;SDS011;8943;51.110;-4.158;2023-01-19T11:42:31;4.70;;;2.27;;
17648;SDS011;8943;51.110;-4.158;2023-01-19T11:45:05;6.90;;;2.40;;
17648;SDS011;8943;51.110;-4.158;2023-01-19T11:47:40;5.90;;;2.03;;
17648;SDS011;8943;51.110;-4.158;2023-01-19T11:50:14;5.53;;;2.50;;
17648;SDS011;8943;51.110;-4.158;2023-01-19T11:52:50;4.87;;;2.37;;
17648;SDS011;8943;51.110;-4.158;2023-01-19T11:55:27;4.70;;;2.00;;
17648;SDS011;8943;51.110;-4.158;2023-01-19T11:58:03;4.83;;;2.30;;
17648;SDS011;8943;51.110;-4.158;2023-01-19T12:00:35;8.23;;;2.17;;
17648;SDS011;8943;51.110;-4.158;2023-01-19T12:03:09;5.87;;;1.73;;
17648;SDS011;8943;51.110;-4.158;2023-01-19T12:05:45;6.30;;;2.23;;
17648;SDS011;8943;51.110;-4.158;2023-01-19T12:08:17;4.43;;;1.73;;
17648;SDS011;8943;51.110;-4.158;2023-01-19T12:10:50;6.90;;;2.17;;
17648;SDS011;8943;51.110;-4.158;2023-01-19T12:13:22;5.83;;;2.13;;
17648;SDS011;8943;51.110;-4.158;2023-01-19T12:15:54;7.07;;;1.40;;
17648;SDS011;8943;51.110;-4.158;2023-01-19T12:18:27;3.77;;;1.83;;
17648;SDS011;8943;51.110;-4.158;2023-01-19T12:20:59;6.53;;;2.23;;
17648;SDS011;8943;51.110;-4.158;2023-01-19T12:26:24;8.47;;;3.90;;
17648;SDS011;8943;51.110;-4.158;2023-01-19T12:28:55;2.73;;;1.00;;
17648;SDS011;8943;51.110;-4.158;2023-01-19T12:31:28;6.90;;;2.03;;
17648;SDS011;8943;51.110;-4.158;2023-01-19T12:34:08;3.57;;;1.73;;
17648;SDS011;8943;51.110;-4.158;2023-01-19T12:37:00;1.67;;;0.60;;
17648;SDS011;8943;51.110;-4.158;2023-01-19T12:39:30;3.27;;;0.60;;
17648;SDS011;8943;51.110;-4.158;2023-01-19T12:42:05;7.93;;;1.60;;
17648;SDS011;8943;51.110;-4.158;2023-01-19T12:44:40;3.60;;;0.70;;
17648;SDS011;8943;51.110;-4.158;2023-01-19T12:47:20;1.20;;;0.40;;
17648;SDS011;8943;51.110;-4.158;2023-01-19T12:49:50;3.70;;;1.00;;
17648;SDS011;8943;51.110;-4.158;2023-01-19T12:52:29;3.33;;;0.90;;
17648;SDS011;8943;51.110;-4.158;2023-01-19T12:55:14;2.70;;;1.03;;
17648;SDS011;8943;51.110;-4.158;2023-01-19T12:57:52;4.03;;;0.83;;
17648;SDS011;8943;51.110;-4.158;2023-01-19T13:00:34;5.30;;;0.90;;
17648;SDS011;8943;51.110;-4.158;2023-01-19T13:03:40;3.47;;;1.07;;
17648;SDS011;8943;51.110;-4.158;2023-01-19T13:06:11;5.20;;;1.43;;
17648;SDS011;8943;51.110;-4.158;2023-01-19T13:08:55;2.40;;;0.70;;
17648;SDS011;8943;51.110;-4.158;2023-01-19T13:11:24;3.37;;;0.60;;
17648;SDS011;8943;51.110;-4.158;2023-01-19T13:25:52;7.20;;;2.43;;
17648;SDS011;8943;51.110;-4.158;2023-01-19T13:28:40;2.00;;;0.70;;
17648;SDS011;8943;51.110;-4.158;2023-01-19T13:31:09;2.60;;;0.50;;
17648;SDS011;8943;51.110;-4.158;2023-01-19T13:33:42;1.47;;;0.80;;
17648;SDS011;8943;51.110;-4.158;2023-01-19T13:36:22;2.47;;;1.03;;
17648;SDS011;8943;51.110;-4.158;2023-01-19T13:38:55;4.47;;;1.13;;
17648;SDS011;8943;51.110;-4.158;2023-01-19T13:41:26;5.33;;;1.20;;
17648;SDS011;8943;51.110;-4.158;2023-01-19T13:43:58;2.37;;;0.90;;
17648;SDS011;8943;51.110;-4.158;2023-01-19T13:46:30;3.00;;;0.60;;
17648;SDS011;8943;51.110;-4.158;2023-01-19T13:49:01;3.03;;;1.00;;
17648;SDS011;8943;51.110;-4.158;2023-01-19T13:51:39;3.07;;;0.97;;
17648;SDS011;8943;51.110;-4.158;2023-01-19T13:54:12;2.80;;;1.10;;
17648;SDS011;8943;51.110;-4.158;2023-01-19T13:56:45;5.40;;;0.73;;
17648;SDS011;8943;51.110;-4.158;2023-01-19T13:59:15;1.70;;;0.50;;
17648;SDS011;8943;51.110;-4.158;2023-01-19T14:01:43;1.27;;;0.67;;
17648;SDS011;8943;51.110;-4.158;2023-01-19T14:04:22;1.80;;;0.67;;
17648;SDS011;8943;51.110;-4.158;2023-01-19T14:06:53;3.47;;;1.00;;
17648;SDS011;8943;51.110;-4.158;2023-01-19T14:09:25;4.90;;;1.23;;
17648;SDS011;8943;51.110;-4.158;2023-01-19T14:12:06;1.00;;;0.60;;
17648;SDS011;8943;51.110;-4.158;2023-01-19T14:14:38;5.77;;;1.10;;
17648;SDS011;8943;51.110;-4.158;2023-01-19T14:17:23;3.57;;;1.20;;
17648;SDS011;8943;51.110;-4.158;2023-01-19T14:19:53;4.80;;;1.40;;
17648;SDS011;8943;51.110;-4.158;2023-01-19T14:25:20;1.57;;;0.80;;
17648;SDS011;8943;51.110;-4.158;2023-01-19T14:30:56;2.97;;;0.73;;
17648;SDS011;8943;51.110;-4.158;2023-01-19T14:33:33;6.57;;;0.97;;
17648;SDS011;8943;51.110;-4.158;2023-01-19T14:38:56;1.47;;;0.50;;
17648;SDS011;8943;51.110;-4.158;2023-01-19T14:41:26;3.97;;;0.67;;
17648;SDS011;8943;51.110;-4.158;2023-01-19T14:44:00;2.07;;;0.87;;
17648;SDS011;8943;51.110;-4.158;2023-01-19T14:46:29;1.60;;;0.67;;
17648;SDS011;8943;51.110;-4.158;2023-01-19T14:48:59;5.60;;;0.90;;
17648;SDS011;8943;51.110;-4.158;2023-01-19T14:51:30;2.13;;;0.70;;
17648;SDS011;8943;51.110;-4.158;2023-01-19T14:54:00;3.33;;;0.67;;
17648;SDS011;8943;51.110;-4.158;2023-01-19T14:56:30;2.37;;;0.87;;
17648;SDS011;8943;51.110;-4.158;2023-01-19T14:59:00;2.60;;;1.27;;
17648;SDS011;8943;51.110;-4.158;2023-01-19T15:01:29;5.10;;;1.50;;
17648;SDS011;8943;51.110;-4.158;2023-01-19T15:03:57;1.90;;;0.80;;
17648;SDS011;8943;51.110;-4.158;2023-01-19T15:06:25;3.37;;;0.83;;
17648;SDS011;8943;51.110;-4.158;2023-01-19T15:08:54;3.70;;;1.63;;
17648;SDS011;8943;51.110;-4.158;2023-01-19T15:11:24;2.73;;;0.70;;
17648;SDS011;8943;51.110;-4.158;2023-01-19T15:13:53;1.10;;;0.60;;
17648;SDS011;8943;51.110;-4.158;2023-01-19T15:16:22;3.40;;;0.87;;
17648;SDS011;8943;51.110;-4.158;2023-01-19T15:18:51;1.87;;;0.70;;
17648;SDS011;8943;51.110;-4.158;2023-01-19T15:21:19;1.43;;;0.60;;
17648;SDS011;8943;51.110;-4.158;2023-01-19T15:23:52;1.80;;;0.50;;
17648;SDS011;8943;51.110;-4.158;2023-01-19T15:26:21;4.77;;;1.50;;
17648;SDS011;8943;51.110;-4.158;2023-01-19T15:28:53;3.83;;;0.90;;
17648;SDS011;8943;51.110;-4.158;2023-01-19T15:31:23;8.17;;;3.00;;
17648;SDS011;8943;51.110;-4.158;2023-01-19T15:33:53;8.03;;;2.77;;
17648;SDS011;8943;51.110;-4.158;2023-01-19T15:36:21;4.70;;;2.47;;
17648;SDS011;8943;51.110;-4.158;2023-01-19T15:38:51;6.60;;;1.30;;